createdAt,value
2023-06-19T05:01:02.808Z,50.62
2023-06-19T05:02:02.716Z,56.25
2023-06-19T05:03:02.743Z,50.62
2023-06-19T05:04:02.700Z,56.25
2023-06-19T05:05:02.677Z,56.25
2023-06-19T05:06:02.690Z,50.62
2023-06-19T05:07:02.666Z,56.25
2023-06-19T05:08:02.669Z,56.25
2023-06-19T05:09:02.640Z,56.25
2023-06-19T05:10:02.624Z,56.25
2023-06-19T05:11:02.666Z,56.25
2023-06-19T05:12:07.634Z,56.25
2023-06-19T05:13:02.589Z,56.25
2023-06-19T05:14:02.592Z,61.88
2023-06-19T05:15:02.590Z,67.50
2023-06-19T05:16:02.598Z,67.50
2023-06-19T05:17:02.623Z,67.50
2023-06-19T05:18:02.579Z,67.50
2023-06-19T05:19:02.545Z,67.50
2023-06-19T05:20:02.519Z,67.50
2023-06-19T05:21:02.516Z,67.50
2023-06-19T05:22:02.500Z,73.12
2023-06-19T05:23:07.498Z,73.12
2023-06-19T05:24:02.484Z,73.12
2023-06-19T05:25:02.502Z,73.12
2023-06-19T05:26:02.535Z,67.50
2023-06-19T05:27:02.434Z,67.50
2023-06-19T05:28:04.953Z,73.12
2023-06-19T05:29:02.411Z,73.12
2023-06-19T05:30:02.422Z,73.12
2023-06-19T05:31:02.404Z,73.12
2023-06-19T05:32:02.444Z,78.75
2023-06-19T05:33:02.468Z,78.75
2023-06-19T05:34:07.395Z,84.38
2023-06-19T05:35:02.380Z,90.00
2023-06-19T05:36:02.344Z,95.62
2023-06-19T05:37:02.323Z,84.38
2023-06-19T05:38:02.365Z,84.38
2023-06-19T05:39:02.312Z,73.12
2023-06-19T05:40:02.345Z,73.12
2023-06-19T05:41:02.283Z,73.12
2023-06-19T05:42:02.271Z,73.12
2023-06-19T05:43:02.257Z,73.12
2023-06-19T05:44:02.280Z,73.12
2023-06-19T05:45:07.332Z,73.12
2023-06-19T05:46:02.274Z,78.75
2023-06-19T05:47:02.216Z,95.62
2023-06-19T05:48:02.272Z,95.62
2023-06-19T05:49:02.228Z,106.88
2023-06-19T05:50:02.201Z,112.50
2023-06-19T05:51:02.216Z,118.12
2023-06-19T05:52:02.232Z,118.12
2023-06-19T05:53:02.150Z,118.12
2023-06-19T05:54:02.165Z,118.12
2023-06-19T05:55:02.182Z,118.12
2023-06-19T05:56:07.136Z,112.50
2023-06-19T05:57:02.110Z,118.12
2023-06-19T05:58:02.153Z,118.12
2023-06-19T05:59:02.099Z,118.12
2023-06-19T06:00:02.085Z,106.88
2023-06-19T06:01:02.093Z,112.50
2023-06-19T06:02:02.055Z,112.50
2023-06-19T06:03:02.077Z,101.25
2023-06-19T06:04:02.128Z,95.62
2023-06-19T06:05:02.165Z,95.62
2023-06-19T06:06:02.029Z,101.25
2023-06-19T06:07:07.023Z,95.62
2023-06-19T06:08:01.994Z,95.62
2023-06-19T06:09:01.974Z,95.62
2023-06-19T06:10:01.969Z,101.25
2023-06-19T06:11:01.978Z,106.88
2023-06-19T06:12:01.992Z,101.25
2023-06-19T06:13:01.940Z,95.62
2023-06-19T06:14:01.932Z,95.62
2023-06-19T06:15:01.908Z,84.38
2023-06-19T06:16:01.897Z,95.62
2023-06-19T06:17:02.010Z,95.62
2023-06-19T06:18:06.984Z,90.00
2023-06-19T06:19:01.869Z,90.00
2023-06-19T06:20:01.852Z,90.00
2023-06-19T06:21:01.882Z,90.00
2023-06-19T06:22:01.859Z,112.50
2023-06-19T06:23:01.842Z,106.88
2023-06-19T06:24:01.826Z,101.25
2023-06-19T06:25:01.888Z,101.25
2023-06-19T06:26:01.785Z,118.12
2023-06-19T06:27:01.784Z,135.00
2023-06-19T06:28:01.770Z,135.00
2023-06-19T06:29:06.773Z,146.25
2023-06-19T06:30:01.773Z,168.75
2023-06-19T06:31:01.756Z,180.00
2023-06-19T06:32:01.814Z,202.50
2023-06-19T06:33:01.757Z,191.25
2023-06-19T06:34:01.705Z,208.12
2023-06-19T06:35:01.683Z,264.38
2023-06-19T06:36:01.680Z,281.25
2023-06-19T06:37:06.414Z,230.62
2023-06-19T06:38:02.762Z,191.25
2023-06-19T06:39:01.653Z,196.88
2023-06-19T06:40:06.713Z,230.62
2023-06-19T06:41:01.627Z,253.12
2023-06-19T06:42:01.626Z,270.00
2023-06-19T06:43:01.595Z,275.62
2023-06-19T06:44:01.672Z,236.25
2023-06-19T06:45:01.570Z,236.25
2023-06-19T06:46:01.601Z,185.62
2023-06-19T06:47:01.561Z,157.50
2023-06-19T06:48:01.613Z,157.50
2023-06-19T06:49:01.531Z,168.75
2023-06-19T06:50:01.569Z,168.75
2023-06-19T06:51:06.557Z,180.00
2023-06-19T06:52:01.499Z,174.38
2023-06-19T06:53:01.606Z,157.50
2023-06-19T06:54:01.478Z,157.50
2023-06-19T06:55:01.478Z,146.25
2023-06-19T06:56:01.460Z,135.00
2023-06-19T06:57:01.487Z,140.62
2023-06-19T06:58:01.501Z,129.38
2023-06-19T06:59:01.415Z,123.75
2023-06-19T07:00:01.426Z,123.75
2023-06-19T07:01:01.432Z,129.38
2023-06-19T07:02:06.485Z,135.00
2023-06-19T07:03:01.494Z,140.62
2023-06-19T07:04:01.392Z,140.62
2023-06-19T07:05:01.378Z,140.62
2023-06-19T07:06:01.377Z,146.25
2023-06-19T07:07:01.332Z,146.25
2023-06-19T07:08:01.325Z,146.25
2023-06-19T07:09:01.345Z,146.25
2023-06-19T07:10:01.371Z,146.25
2023-06-19T07:11:01.290Z,151.88
2023-06-19T07:12:01.281Z,151.88
2023-06-19T07:13:06.289Z,180.00
2023-06-19T07:14:01.269Z,163.12
2023-06-19T07:15:01.255Z,174.38
2023-06-19T07:16:01.257Z,191.25
2023-06-19T07:17:01.333Z,230.62
2023-06-19T07:18:01.318Z,247.50
2023-06-19T07:19:01.213Z,219.38
2023-06-19T07:20:01.192Z,208.12
2023-06-19T07:21:01.183Z,191.25
2023-06-19T07:22:01.192Z,191.25
2023-06-19T07:23:01.215Z,180.00
2023-06-19T07:24:06.241Z,163.12
2023-06-19T07:25:01.146Z,140.62
2023-06-19T07:26:01.134Z,151.88
2023-06-19T07:27:01.118Z,151.88
2023-06-19T07:28:01.122Z,163.12
2023-06-19T07:29:01.120Z,185.62
2023-06-19T07:30:01.098Z,180.00
2023-06-19T07:31:01.073Z,180.00
2023-06-19T07:32:01.078Z,196.88
2023-06-19T07:33:01.135Z,202.50
2023-06-19T07:34:01.046Z,208.12
2023-06-19T07:35:06.102Z,236.25
2023-06-19T07:36:01.017Z,219.38
2023-06-19T07:37:01.021Z,230.62
2023-06-19T07:38:01.007Z,213.75
2023-06-19T07:39:00.994Z,191.25
2023-06-19T07:40:01.061Z,196.88
2023-06-19T07:41:01.002Z,208.12
2023-06-19T07:42:00.970Z,230.62
2023-06-19T07:43:00.940Z,202.50
2023-06-19T07:44:00.945Z,236.25
2023-06-19T07:45:00.920Z,253.12
2023-06-19T07:46:05.952Z,236.25
2023-06-19T07:47:00.980Z,208.12
2023-06-19T07:48:00.950Z,163.12
2023-06-19T07:49:00.897Z,135.00
2023-06-19T07:50:00.874Z,123.75
2023-06-19T07:51:00.869Z,123.75
2023-06-19T07:52:00.861Z,129.38
2023-06-19T07:53:00.880Z,112.50
2023-06-19T07:54:00.828Z,106.88
2023-06-19T07:55:00.819Z,101.25
2023-06-19T07:56:00.833Z,101.25
2023-06-19T07:57:05.815Z,95.62
2023-06-19T07:58:00.793Z,78.75
2023-06-19T07:59:00.815Z,73.12
2023-06-19T08:00:00.786Z,67.50
2023-06-19T08:01:00.752Z,67.50
2023-06-19T08:02:00.757Z,61.88
2023-06-19T08:03:00.830Z,56.25
2023-06-19T08:04:00.759Z,67.50
2023-06-19T08:05:00.767Z,78.75
2023-06-19T08:06:00.762Z,73.12
2023-06-19T08:07:00.717Z,78.75
2023-06-19T08:08:05.708Z,90.00
2023-06-19T08:09:00.659Z,112.50
2023-06-19T08:10:12.373Z,106.88
2023-06-19T08:11:00.635Z,101.25
2023-06-19T08:12:00.734Z,118.12
2023-06-19T08:13:00.643Z,140.62
2023-06-19T08:14:00.612Z,163.12
2023-06-19T08:15:00.598Z,123.75
2023-06-19T08:16:00.582Z,112.50
2023-06-19T08:17:00.625Z,95.62
2023-06-19T08:18:00.607Z,90.00
2023-06-19T08:19:05.586Z,112.50
2023-06-19T08:20:00.580Z,118.12
2023-06-19T08:21:00.518Z,135.00
2023-06-19T08:22:00.533Z,129.38
2023-06-19T08:23:00.534Z,140.62
2023-06-19T08:24:00.528Z,191.25
2023-06-19T08:25:00.476Z,202.50
2023-06-19T08:26:00.515Z,208.12
2023-06-19T08:27:00.461Z,253.12
2023-06-19T08:28:00.472Z,219.38
2023-06-19T08:29:00.454Z,230.62
2023-06-19T08:30:05.441Z,230.62
2023-06-19T08:31:00.411Z,202.50
2023-06-19T08:32:00.448Z,354.38
2023-06-19T08:33:00.489Z,298.12
2023-06-19T08:34:00.391Z,478.12
2023-06-19T08:35:00.378Z,292.50
2023-06-19T08:36:00.362Z,270.00
2023-06-19T08:37:00.346Z,213.75
2023-06-19T08:38:00.347Z,241.88
2023-06-19T08:39:00.374Z,236.25
2023-06-19T08:40:00.310Z,270.00
2023-06-19T08:41:05.336Z,230.62
2023-06-19T08:42:00.292Z,275.62
2023-06-19T08:43:00.285Z,264.38
2023-06-19T08:44:00.289Z,315.00
2023-06-19T08:45:00.306Z,315.00
2023-06-19T08:46:00.327Z,326.25
2023-06-19T08:47:00.237Z,815.62
2023-06-19T08:48:00.340Z,376.88
2023-06-19T08:49:00.213Z,478.12
2023-06-19T08:50:02.372Z,922.50
2023-06-19T08:51:00.210Z,1738.12
2023-06-19T08:52:05.215Z,1411.88
2023-06-19T08:53:00.262Z,573.75
2023-06-19T08:54:00.174Z,421.88
2023-06-19T08:55:00.189Z,562.50
2023-06-19T08:56:00.158Z,573.75
2023-06-19T08:57:00.180Z,478.12
2023-06-19T08:58:00.129Z,275.62
2023-06-19T08:59:00.171Z,230.62
2023-06-19T09:00:00.342Z,236.25
2023-06-19T09:01:00.124Z,253.12
2023-06-19T09:02:00.154Z,292.50
2023-06-19T09:03:14.324Z,298.12
2023-06-19T09:04:00.210Z,286.88
2023-06-19T09:05:00.041Z,286.88
2023-06-19T09:06:00.142Z,309.38
2023-06-19T09:07:00.205Z,320.62
2023-06-19T09:08:00.108Z,320.62
2023-06-19T09:09:00.008Z,320.62
2023-06-19T09:09:59.992Z,365.62
2023-06-19T09:10:59.984Z,348.75
2023-06-19T09:11:59.988Z,438.75
2023-06-19T09:12:59.981Z,365.62
2023-06-19T09:14:05.028Z,320.62
2023-06-19T09:14:59.975Z,225.00
2023-06-19T09:16:00.071Z,298.12
2023-06-19T09:16:59.942Z,388.12
2023-06-19T09:17:59.985Z,298.12
2023-06-19T09:18:59.898Z,292.50
2023-06-19T09:19:59.900Z,309.38
2023-06-19T09:20:59.948Z,309.38
2023-06-19T09:21:59.857Z,281.25
2023-06-19T09:22:59.850Z,298.12
2023-06-19T09:23:59.850Z,309.38
2023-06-19T09:25:04.865Z,303.75
2023-06-19T09:25:59.900Z,281.25
2023-06-19T09:26:59.803Z,298.12
2023-06-19T09:27:59.797Z,303.75
2023-06-19T09:28:59.786Z,354.38
2023-06-19T09:29:59.788Z,410.62
2023-06-19T09:30:59.767Z,354.38
2023-06-19T09:31:59.793Z,348.75
2023-06-19T09:32:59.804Z,438.75
2023-06-19T09:33:59.850Z,720.00
2023-06-19T09:35:00.007Z,421.88
2023-06-19T09:36:04.885Z,371.25
2023-06-19T09:36:59.701Z,1400.62
2023-06-19T09:37:59.728Z,1738.12
2023-06-19T09:38:59.851Z,1794.38
2023-06-19T09:39:59.681Z,292.50
2023-06-19T09:40:59.656Z,236.25
2023-06-19T09:41:59.657Z,253.12
2023-06-19T09:42:59.630Z,275.62
2023-06-19T09:43:59.638Z,264.38
2023-06-19T09:44:59.645Z,258.75
2023-06-19T09:45:59.606Z,787.50
2023-06-19T09:47:04.689Z,1254.38
2023-06-19T09:47:59.705Z,2210.62
2023-06-19T09:48:59.598Z,427.50
2023-06-19T09:49:59.554Z,264.38
2023-06-19T09:50:59.548Z,286.88
2023-06-19T09:51:59.538Z,331.88
2023-06-19T09:52:59.518Z,365.62
2023-06-19T09:53:59.573Z,528.75
2023-06-19T09:54:59.526Z,360.00
2023-06-19T09:55:59.507Z,354.38
2023-06-19T09:56:59.485Z,230.62
2023-06-19T09:57:59.490Z,236.25
2023-06-19T09:58:59.471Z,303.75
2023-06-19T10:00:04.562Z,286.88
2023-06-19T10:00:59.450Z,281.25
2023-06-19T10:01:59.479Z,275.62
2023-06-19T10:02:59.562Z,286.88
2023-06-19T10:03:59.402Z,331.88
2023-06-19T10:04:59.389Z,343.12
2023-06-19T10:05:59.431Z,331.88
2023-06-19T10:06:59.367Z,348.75
2023-06-19T10:07:59.366Z,354.38
2023-06-19T10:08:59.343Z,337.50
2023-06-19T10:09:59.334Z,348.75
2023-06-19T10:10:59.329Z,354.38
2023-06-19T10:11:59.370Z,365.62
2023-06-19T10:13:04.332Z,360.00
2023-06-19T10:13:59.294Z,416.25
2023-06-19T10:14:59.280Z,365.62
2023-06-19T10:15:59.292Z,331.88
2023-06-19T10:16:59.296Z,360.00
2023-06-19T10:17:59.361Z,348.75
2023-06-19T10:18:59.287Z,348.75
2023-06-19T10:19:59.234Z,455.62
2023-06-19T10:20:59.339Z,326.25
2023-06-19T10:22:01.397Z,444.38
2023-06-19T10:22:59.192Z,405.00
2023-06-19T10:24:04.309Z,354.38
2023-06-19T10:24:59.184Z,343.12
2023-06-19T10:25:59.172Z,348.75
2023-06-19T10:26:59.167Z,331.88
2023-06-19T10:27:59.133Z,320.62
2023-06-19T10:28:59.128Z,320.62
2023-06-19T10:30:10.119Z,320.62
2023-06-19T10:30:59.173Z,309.38
2023-06-19T10:31:59.102Z,303.75
2023-06-19T10:32:59.113Z,326.25
2023-06-19T10:33:59.073Z,348.75
2023-06-19T10:35:04.102Z,416.25
2023-06-19T10:35:59.105Z,376.88
2023-06-19T10:36:59.058Z,438.75
2023-06-19T10:37:59.034Z,478.12
2023-06-19T10:38:59.019Z,506.25
2023-06-19T10:39:59.004Z,714.38
2023-06-19T10:40:59.029Z,736.88
2023-06-19T10:41:59.037Z,427.50
2023-06-19T10:42:58.972Z,438.75
2023-06-19T10:43:58.995Z,393.75
2023-06-19T10:44:58.960Z,399.38
2023-06-19T10:46:04.040Z,382.50
2023-06-19T10:46:58.967Z,399.38
2023-06-19T10:47:59.014Z,450.00
2023-06-19T10:48:58.915Z,393.75
2023-06-19T10:49:58.911Z,438.75
2023-06-19T10:50:58.926Z,1170.00
2023-06-19T10:51:58.879Z,1001.25
2023-06-19T10:52:58.871Z,804.38
2023-06-19T10:53:58.903Z,523.12
2023-06-19T10:54:58.856Z,483.75
2023-06-19T10:55:58.832Z,405.00
2023-06-19T10:56:58.832Z,388.12
2023-06-19T10:57:58.813Z,393.75
2023-06-19T10:59:03.867Z,388.12
2023-06-19T10:59:58.861Z,405.00
2023-06-19T11:00:58.898Z,444.38
2023-06-19T11:01:58.783Z,613.12
2023-06-19T11:02:59.045Z,933.75
2023-06-19T11:03:58.759Z,556.88
2023-06-19T11:04:58.741Z,630.00
2023-06-19T11:05:58.721Z,1445.62
2023-06-19T11:06:58.814Z,1198.12
2023-06-19T11:07:58.721Z,1321.88
2023-06-19T11:08:58.702Z,585.00
2023-06-19T11:09:58.691Z,787.50
2023-06-19T11:10:58.683Z,1001.25
2023-06-19T11:12:03.679Z,489.38
2023-06-19T11:12:58.688Z,523.12
2023-06-19T11:13:58.813Z,607.50
2023-06-19T11:14:58.663Z,894.38
2023-06-19T11:15:58.681Z,1018.12
2023-06-19T11:16:58.643Z,1023.75
2023-06-19T11:17:58.635Z,978.75
2023-06-19T11:18:58.587Z,1113.75
2023-06-19T11:19:58.662Z,2930.62
2023-06-19T11:20:59.930Z,2756.25
2023-06-19T11:21:58.590Z,2745.00
2023-06-19T11:22:58.589Z,2238.75
2023-06-19T11:23:58.579Z,2401.88
2023-06-19T11:25:03.549Z,2340.00
2023-06-19T11:25:58.533Z,2823.75
2023-06-19T11:26:58.607Z,2936.25
2023-06-19T11:27:58.498Z,2773.12
2023-06-19T11:28:58.478Z,2542.50
2023-06-19T11:29:58.466Z,2030.62
2023-06-19T11:30:58.488Z,1918.12
2023-06-19T11:31:58.457Z,2109.38
2023-06-19T11:32:58.576Z,2137.50
2023-06-19T11:33:58.430Z,2604.38
2023-06-19T11:34:58.432Z,2486.25
2023-06-19T11:35:58.406Z,2705.62
2023-06-19T11:36:58.403Z,2480.62
2023-06-19T11:38:03.452Z,2266.88
2023-06-19T11:38:58.528Z,1991.25
2023-06-19T11:39:58.360Z,2115.00
2023-06-19T11:40:58.387Z,2086.88
2023-06-19T11:41:58.359Z,2379.38
2023-06-19T11:42:58.345Z,2851.88
2023-06-19T11:43:58.318Z,2767.50
2023-06-19T11:44:58.451Z,2874.38
2023-06-19T11:45:58.361Z,3026.25
2023-06-19T11:46:58.311Z,3279.38
2023-06-19T11:47:58.418Z,3183.75
2023-06-19T11:49:07.308Z,3088.12
2023-06-19T11:49:58.261Z,3037.50
2023-06-19T11:50:58.390Z,3144.38
2023-06-19T11:51:58.246Z,2542.50
2023-06-19T11:52:58.257Z,1473.75
2023-06-19T11:53:58.257Z,1833.75
2023-06-19T11:54:58.218Z,2199.38
2023-06-19T11:55:58.231Z,2030.62
2023-06-19T11:56:58.268Z,1203.75
2023-06-19T11:57:58.182Z,1400.62
2023-06-19T11:58:58.177Z,1468.12
2023-06-19T12:00:03.195Z,1558.12
2023-06-19T12:00:58.175Z,1254.38
2023-06-19T12:01:58.192Z,1164.38
2023-06-19T12:02:58.362Z,1243.12
2023-06-19T12:03:58.179Z,1209.38
2023-06-19T12:04:58.123Z,1220.62
2023-06-19T12:05:58.108Z,1321.88
2023-06-19T12:06:58.113Z,1220.62
2023-06-19T12:07:58.087Z,945.00
2023-06-19T12:08:58.167Z,832.50
2023-06-19T12:09:58.095Z,759.38
2023-06-19T12:11:03.074Z,691.88
2023-06-19T12:11:58.038Z,511.88
2023-06-19T12:12:58.030Z,399.38
2023-06-19T12:13:58.025Z,253.12
2023-06-19T12:14:58.103Z,219.38
2023-06-19T12:15:57.998Z,213.75
2023-06-19T12:16:58.028Z,258.75
2023-06-19T12:17:58.003Z,241.88
2023-06-19T12:18:58.089Z,247.50
2023-06-19T12:19:57.956Z,247.50
2023-06-19T12:20:57.994Z,241.88
2023-06-19T12:22:02.983Z,258.75
2023-06-19T12:22:57.951Z,286.88
2023-06-19T12:23:57.971Z,292.50
2023-06-19T12:24:57.910Z,320.62
2023-06-19T12:25:57.916Z,331.88
2023-06-19T12:26:57.938Z,343.12
2023-06-19T12:27:57.881Z,343.12
2023-06-19T12:28:57.866Z,348.75
2023-06-19T12:29:57.846Z,354.38
2023-06-19T12:30:57.920Z,343.12
2023-06-19T12:31:57.829Z,348.75
2023-06-19T12:32:57.924Z,354.38
2023-06-19T12:34:00.229Z,354.38
2023-06-19T12:35:02.815Z,371.25
2023-06-19T12:35:57.799Z,382.50
2023-06-19T12:36:57.820Z,393.75
2023-06-19T12:37:57.790Z,393.75
2023-06-19T12:38:57.759Z,371.25
2023-06-19T12:39:57.825Z,354.38
2023-06-19T12:40:57.739Z,348.75
2023-06-19T12:41:57.800Z,331.88
2023-06-19T12:42:57.728Z,326.25
2023-06-19T12:43:57.704Z,320.62
2023-06-19T12:44:57.679Z,320.62
2023-06-19T12:45:57.824Z,320.62
2023-06-19T12:46:57.674Z,337.50
2023-06-19T12:48:02.687Z,348.75
2023-06-19T12:48:57.663Z,348.75
2023-06-19T12:49:57.651Z,343.12
2023-06-19T12:50:57.619Z,348.75
2023-06-19T12:51:57.711Z,343.12
2023-06-19T12:52:57.593Z,337.50
2023-06-19T12:53:57.588Z,309.38
2023-06-19T12:54:57.578Z,298.12
2023-06-19T12:56:02.206Z,286.88
2023-06-19T12:56:57.570Z,292.50
2023-06-19T12:57:57.627Z,303.75
2023-06-19T12:58:57.529Z,315.00
2023-06-19T12:59:57.519Z,315.00
2023-06-19T13:01:02.548Z,298.12
2023-06-19T13:01:57.534Z,292.50
2023-06-19T13:02:57.606Z,292.50
2023-06-19T13:03:57.644Z,298.12
2023-06-19T13:04:57.471Z,303.75
2023-06-19T13:05:57.466Z,303.75
2023-06-19T13:06:57.458Z,309.38
2023-06-19T13:07:57.478Z,315.00
2023-06-19T13:08:57.430Z,320.62
2023-06-19T13:09:57.494Z,326.25
2023-06-19T13:10:57.490Z,331.88
2023-06-19T13:11:57.482Z,320.62
2023-06-19T13:12:57.484Z,309.38
2023-06-19T13:14:02.425Z,270.00
2023-06-19T13:14:57.395Z,258.75
2023-06-19T13:15:57.534Z,241.88
2023-06-19T13:16:57.438Z,213.75
2023-06-19T13:17:57.377Z,236.25
2023-06-19T13:18:57.333Z,236.25
2023-06-19T13:19:57.308Z,236.25
2023-06-19T13:20:57.297Z,230.62
2023-06-19T13:21:57.380Z,230.62
2023-06-19T13:22:57.290Z,236.25
2023-06-19T13:23:57.291Z,236.25
2023-06-19T13:24:57.261Z,236.25
2023-06-19T13:25:57.250Z,202.50
2023-06-19T13:27:02.284Z,208.12
2023-06-19T13:27:57.298Z,213.75
2023-06-19T13:28:57.240Z,225.00
2023-06-19T13:29:57.227Z,281.25
2023-06-19T13:30:57.192Z,303.75
2023-06-19T13:31:57.191Z,309.38
2023-06-19T13:32:57.213Z,303.75
2023-06-19T13:33:57.204Z,286.88
2023-06-19T13:34:57.197Z,264.38
2023-06-19T13:35:57.152Z,241.88
2023-06-19T13:36:57.136Z,213.75
2023-06-19T13:37:57.129Z,208.12
2023-06-19T13:38:57.114Z,208.12
2023-06-19T13:40:02.112Z,202.50
2023-06-19T13:40:57.112Z,202.50
2023-06-19T13:41:57.220Z,208.12
2023-06-19T13:42:57.062Z,213.75
2023-06-19T13:43:57.053Z,225.00
2023-06-19T13:44:57.052Z,236.25
2023-06-19T13:45:57.086Z,225.00
2023-06-19T13:46:57.076Z,219.38
2023-06-19T13:47:57.073Z,213.75
2023-06-19T13:48:57.006Z,202.50
2023-06-19T13:49:56.986Z,191.25
2023-06-19T13:50:57.009Z,180.00
2023-06-19T13:51:56.972Z,168.75
2023-06-19T13:53:01.976Z,157.50
2023-06-19T13:53:57.063Z,146.25
2023-06-19T13:54:56.958Z,135.00
2023-06-19T13:55:56.935Z,129.38
2023-06-19T13:56:56.912Z,129.38
2023-06-19T13:57:56.903Z,135.00
2023-06-19T13:58:56.888Z,146.25
2023-06-19T13:59:56.913Z,151.88
2023-06-19T14:00:57.050Z,151.88
2023-06-19T14:01:56.909Z,157.50
2023-06-19T14:02:56.923Z,157.50
2023-06-19T14:03:56.831Z,168.75
2023-06-19T14:04:56.839Z,185.62
2023-06-19T14:06:01.834Z,185.62
2023-06-19T14:06:56.874Z,168.75
2023-06-19T14:07:56.910Z,196.88
2023-06-19T14:08:56.791Z,157.50
2023-06-19T14:09:56.775Z,157.50
2023-06-19T14:10:56.768Z,163.12
2023-06-19T14:11:56.761Z,163.12
2023-06-19T14:12:56.736Z,163.12
2023-06-19T14:13:56.747Z,157.50
2023-06-19T14:14:56.749Z,168.75
2023-06-19T14:15:56.720Z,157.50
2023-06-19T14:16:56.708Z,151.88
2023-06-19T14:17:56.775Z,151.88
2023-06-19T14:19:01.710Z,157.50
2023-06-19T14:19:56.714Z,151.88
2023-06-19T14:20:56.743Z,140.62
2023-06-19T14:21:56.641Z,135.00
2023-06-19T14:22:56.635Z,123.75
2023-06-19T14:23:56.745Z,118.12
2023-06-19T14:24:56.612Z,112.50
2023-06-19T14:25:56.616Z,112.50
2023-06-19T14:26:56.680Z,118.12
2023-06-19T14:27:56.584Z,129.38
2023-06-19T14:28:56.575Z,135.00
2023-06-19T14:29:56.556Z,140.62
2023-06-19T14:30:56.547Z,140.62
2023-06-19T14:32:01.555Z,146.25
2023-06-19T14:32:56.692Z,151.88
2023-06-19T14:33:56.557Z,157.50
2023-06-19T14:34:56.509Z,163.12
2023-06-19T14:35:56.497Z,168.75
2023-06-19T14:36:56.484Z,174.38
2023-06-19T14:37:56.511Z,180.00
2023-06-19T14:38:56.546Z,185.62
2023-06-19T14:39:56.446Z,180.00
2023-06-19T14:40:56.441Z,185.62
2023-06-19T14:41:56.427Z,180.00
2023-06-19T14:42:56.423Z,185.62
2023-06-19T14:43:56.415Z,191.25
2023-06-19T14:45:01.507Z,213.75
2023-06-19T14:45:56.386Z,196.88
2023-06-19T14:46:56.397Z,202.50
2023-06-19T14:47:56.390Z,208.12
2023-06-19T14:48:56.351Z,202.50
2023-06-19T14:49:56.380Z,168.75
2023-06-19T14:50:56.409Z,146.25
2023-06-19T14:51:56.332Z,135.00
2023-06-19T14:52:56.308Z,135.00
2023-06-19T14:53:56.297Z,140.62
2023-06-19T14:54:59.268Z,140.62
2023-06-19T14:56:01.341Z,151.88
2023-06-19T14:56:56.382Z,174.38
2023-06-19T14:57:56.278Z,163.12
2023-06-19T14:58:56.241Z,157.50
2023-06-19T14:59:56.243Z,157.50
2023-06-19T15:00:56.263Z,135.00
2023-06-19T15:01:56.278Z,118.12
2023-06-19T15:02:56.359Z,112.50
2023-06-19T15:03:56.309Z,112.50
2023-06-19T15:05:05.663Z,129.38
2023-06-19T15:05:57.221Z,146.25
2023-06-19T15:06:56.159Z,140.62
2023-06-19T15:07:56.177Z,129.38
2023-06-19T15:09:03.132Z,123.75
2023-06-19T15:09:56.125Z,123.75
2023-06-19T15:10:56.125Z,123.75
2023-06-19T15:11:56.120Z,135.00
2023-06-19T15:12:56.114Z,151.88
2023-06-19T15:13:56.106Z,168.75
2023-06-19T15:14:56.089Z,180.00
2023-06-19T15:15:56.070Z,185.62
2023-06-19T15:16:56.060Z,191.25
2023-06-19T15:17:56.126Z,180.00
2023-06-19T15:18:56.067Z,157.50
2023-06-19T15:20:01.106Z,146.25
2023-06-19T15:20:56.036Z,140.62
2023-06-19T15:21:56.014Z,140.62
2023-06-19T15:22:55.989Z,146.25
2023-06-19T15:23:56.025Z,146.25
2023-06-19T15:24:55.978Z,151.88
2023-06-19T15:25:56.054Z,140.62
2023-06-19T15:26:55.940Z,140.62
2023-06-19T15:27:55.933Z,140.62
2023-06-19T15:28:55.925Z,140.62
2023-06-19T15:29:55.924Z,140.62
2023-06-19T15:31:00.921Z,135.00
2023-06-19T15:31:55.942Z,123.75
2023-06-19T15:32:55.924Z,118.12
2023-06-19T15:33:55.893Z,118.12
2023-06-19T15:34:55.870Z,118.12
2023-06-19T15:35:55.851Z,123.75
2023-06-19T15:36:55.832Z,129.38
2023-06-19T15:37:55.926Z,129.38
2023-06-19T15:38:55.840Z,129.38
2023-06-19T15:39:55.966Z,129.38
2023-06-19T15:40:55.792Z,123.75
2023-06-19T15:42:00.806Z,123.75
2023-06-19T15:42:55.779Z,123.75
2023-06-19T15:43:55.779Z,129.38
2023-06-19T15:44:55.743Z,135.00
2023-06-19T15:45:55.857Z,140.62
2023-06-19T15:46:55.729Z,151.88
2023-06-19T15:47:55.772Z,157.50
2023-06-19T15:48:55.711Z,163.12
2023-06-19T15:49:55.696Z,163.12
2023-06-19T15:50:55.685Z,151.88
2023-06-19T15:51:55.703Z,151.88
2023-06-19T15:53:00.780Z,151.88
2023-06-19T15:53:55.668Z,146.25
2023-06-19T15:54:55.642Z,151.88
2023-06-19T15:55:55.632Z,151.88
2023-06-19T15:56:58.041Z,140.62
2023-06-19T15:57:55.630Z,140.62
2023-06-19T15:58:55.628Z,140.62
2023-06-19T15:59:55.588Z,151.88
2023-06-19T16:00:55.584Z,151.88
2023-06-19T16:01:55.718Z,157.50
2023-06-19T16:02:55.639Z,157.50
2023-06-19T16:04:00.662Z,151.88
2023-06-19T16:04:55.582Z,146.25
2023-06-19T16:06:06.006Z,151.88
2023-06-19T16:06:56.518Z,151.88
2023-06-19T16:07:55.525Z,140.62
2023-06-19T16:08:55.508Z,140.62
2023-06-19T16:09:56.123Z,135.00
2023-06-19T16:10:55.526Z,135.00
2023-06-19T16:11:55.462Z,129.38
2023-06-19T16:12:55.449Z,118.12
2023-06-19T16:13:55.433Z,112.50
2023-06-19T16:15:00.448Z,112.50
2023-06-19T16:15:55.439Z,112.50
2023-06-19T16:16:55.497Z,112.50
2023-06-19T16:17:55.426Z,112.50
2023-06-19T16:18:55.378Z,112.50
2023-06-19T16:19:55.370Z,112.50
2023-06-19T16:20:55.354Z,112.50
2023-06-19T16:21:55.355Z,106.88
2023-06-19T16:22:55.353Z,123.75
2023-06-19T16:23:55.412Z,112.50
2023-06-19T16:24:55.345Z,106.88
2023-06-19T16:26:00.336Z,118.12
2023-06-19T16:26:55.328Z,146.25
2023-06-19T16:27:55.288Z,163.12
2023-06-19T16:28:55.272Z,151.88
2023-06-19T16:29:55.297Z,146.25
2023-06-19T16:30:55.309Z,151.88
2023-06-19T16:32:08.131Z,151.88
2023-06-19T16:32:55.287Z,146.25
2023-06-19T16:33:55.218Z,129.38
2023-06-19T16:34:55.206Z,118.12
2023-06-19T16:35:55.255Z,112.50
2023-06-19T16:37:00.214Z,101.25
2023-06-19T16:37:55.221Z,90.00
2023-06-19T16:38:55.167Z,73.12
2023-06-19T16:39:55.193Z,61.88
2023-06-19T16:40:55.189Z,56.25
2023-06-19T16:41:55.192Z,56.25
2023-06-19T16:42:55.200Z,56.25
2023-06-19T16:43:55.112Z,56.25
2023-06-19T16:44:55.109Z,50.62
2023-06-19T16:45:55.098Z,50.62
2023-06-19T16:46:55.150Z,50.62
2023-06-19T16:48:00.177Z,50.62
2023-06-19T16:48:55.115Z,50.62
2023-06-19T16:49:55.056Z,50.62
2023-06-19T16:50:55.042Z,56.25
2023-06-19T16:51:55.032Z,61.88
2023-06-19T16:52:55.024Z,61.88
2023-06-19T16:53:55.008Z,61.88
2023-06-19T16:54:55.059Z,61.88
2023-06-19T16:55:55.009Z,61.88
2023-06-19T16:56:55.009Z,61.88
2023-06-19T16:57:54.966Z,61.88
2023-06-19T16:58:59.983Z,61.88
2023-06-19T16:59:54.962Z,61.88
2023-06-19T17:00:55.170Z,56.25
2023-06-19T17:01:54.990Z,56.25
2023-06-19T17:02:55.015Z,56.25
2023-06-19T17:03:54.969Z,50.62
2023-06-19T17:04:54.895Z,50.62
2023-06-19T17:05:54.876Z,50.62
2023-06-19T17:06:54.863Z,50.62
2023-06-19T17:07:54.857Z,56.25
2023-06-19T17:08:54.861Z,56.25
2023-06-19T17:09:59.935Z,50.62
2023-06-19T17:10:54.817Z,50.62
2023-06-19T17:11:54.810Z,45.00
2023-06-19T17:12:54.830Z,45.00
2023-06-19T17:13:54.804Z,50.62
2023-06-19T17:14:54.780Z,56.25
2023-06-19T17:15:54.831Z,56.25
2023-06-19T17:16:54.776Z,56.25
2023-06-19T17:17:54.791Z,50.62
2023-06-19T17:18:54.749Z,50.62
2023-06-19T17:19:54.730Z,45.00
2023-06-19T17:20:59.732Z,45.00
2023-06-19T17:21:54.744Z,45.00
2023-06-19T17:22:54.695Z,45.00
2023-06-19T17:23:54.706Z,45.00
2023-06-19T17:24:54.744Z,45.00
2023-06-19T17:25:54.652Z,45.00
2023-06-19T17:26:54.656Z,50.62
2023-06-19T17:27:54.745Z,50.62
2023-06-19T17:28:54.645Z,56.25
2023-06-19T17:29:54.632Z,56.25
2023-06-19T17:30:54.596Z,61.88